Latest Weather Observations for Curtin

IDW60801

Issued at 6:02 am WST Tuesday 27 January 2015 (issued every 30 minutes, with the page automatically refreshed every 10 minutes)

About weather observations | Map of weather stations | Latest weather observations for WA | Other Formats
Station Details ID: 003080 Name: CURTIN AERO Lat: -17.58 Lon: 123.83 Height: 77.5 m
Data from the previous 72 hours. | See also: Recent months at Curtin
Date/Time
WST
Temp
°C
App
Temp
°C
Dew
Point
Rel
Hum
%
Delta-T
°C
Wind Press
QNH
hPa
Press
MSL
hPa
Rain
since 9 am
mm
Dir
 
Spd
km/h
Gust
km/h
Spd
kts
Gust
kts
27/06:00am 24.9 31.2 24.7 99 0.1 CALM 0 0 0 0 1007.9 1007.3 0.4
27/05:30am 24.2 30.0 24.0 99 0.1 CALM 0 0 0 0 1007.4 1006.8 0.4
27/05:00am 25.1 30.2 24.9 99 0.1 WSW 7 9 4 5 1006.9 1006.3 0.4
27/04:30am 24.5 30.5 24.3 99 0.1 CALM 0 0 0 0 1006.8 1006.2 0.4
27/04:00am 24.8 30.6 24.5 98 0.2 N 2 6 1 3 1006.5 1005.9 0.4
27/03:30am 24.6 29.3 23.9 96 0.5 N 6 9 3 5 1006.3 1005.7 0.4
27/03:00am 24.7 29.2 24.0 96 0.5 NE 7 9 4 5 1006.2 1005.6 0.4
27/02:30am 25.2 30.4 24.2 94 0.7 S 4 6 2 3 1006.2 1005.6 0.4
27/02:00am 25.4 31.0 24.2 93 0.8 SSW 2 7 1 4 1006.3 1005.7 0.4
27/01:30am 25.4 30.9 24.0 92 1.0 NW 2 6 1 3 1006.2 1005.6 0.4
27/01:00am 25.2 29.6 23.4 90 1.2 NNW 6 9 3 5 1006.2 1005.6 0.4
27/12:30am 25.3 31.2 24.1 93 0.8 CALM 0 0 0 0 1006.3 1005.7 0.4
27/12:00am 24.9 28.5 23.0 89 1.3 N 9 11 5 6 1006.0 1005.4 0.4
 
Date/Time
WST
Temp
°C
App
Temp
°C
Dew
Point
Rel
Hum
%
Delta-T
°C
Wind Press
QNH
hPa
Press
MSL
hPa
Rain
since 9 am
mm
Dir
 
Spd
km/h
Gust
km/h
Spd
kts
Gust
kts
26/11:30pm 25.0 30.5 23.4 91 1.1 CALM 0 0 0 0 1006.5 1005.9 0.4
26/11:00pm 25.3 29.5 23.4 89 1.3 NNE 7 9 4 5 1006.8 1006.2 0.4
26/10:30pm 25.8 30.1 23.7 88 1.4 SE 7 7 4 4 1007.6 1007.0 0.4
26/10:00pm 25.9 30.6 23.4 86 1.7 N 4 7 2 4 1007.8 1007.2 0.4
26/09:30pm 25.8 29.9 22.9 84 2.0 N 6 9 3 5 1007.7 1007.1 0.4
26/09:00pm 26.3 30.9 23.2 83 2.1 NNE 4 7 2 4 1008.0 1007.4 0.4
26/08:30pm 26.3 31.0 23.4 84 2.0 NNE 4 9 2 5 1008.0 1007.4 0.4
26/08:00pm 26.0 30.9 24.4 91 1.1 N 6 9 3 5 1007.2 1006.6 0.2
26/07:30pm 26.1 31.7 24.3 90 1.2 NW 2 6 1 3 1007.2 1006.6 0.2
26/07:00pm 26.4 30.1 23.9 86 1.7 WSW 11 15 6 8 1007.3 1006.7 0.2
26/06:30pm 27.9 31.1 22.4 72 3.7 SW 9 13 5 7 1007.0 1006.4 0.0
26/06:00pm 27.8 30.3 21.1 67 4.5 N 9 13 5 7 1006.5 1005.9 0.0
26/05:30pm 28.0 29.9 22.0 70 4.0 NNE 15 22 8 12 1006.0 1005.4 0.0
26/05:00pm 27.9 29.8 22.1 70 3.9 NE 15 22 8 12 1005.2 1004.6 0.0
26/04:30pm 27.9 26.2 21.4 67 4.3 ENE 32 44 17 24 1006.1 1005.5 0.0
26/04:11pm 30.7 30.4 20.3 53 6.9 NE 22 48 12 26 1005.8 1005.2 0.0
26/04:08pm 31.9 32.1 20.2 50 7.8 NNE 19 48 10 26 1005.8 1005.2 0.0
26/04:00pm 34.6 37.0 22.3 48 8.5 N 13 20 7 11 1005.3 1004.7 0.0
26/03:30pm 35.0 38.4 22.7 49 8.5 NNW 9 15 5 8 1005.0 1004.4 0.0
26/03:00pm 34.7 36.8 22.4 48 8.5 NW 15 20 8 11 1004.5 1003.9 0.0
26/02:30pm 34.5 37.2 22.9 51 8.0 W 13 24 7 13 1004.5 1003.9 0.0
26/02:00pm 34.6 38.1 23.6 52 7.7 WNW 11 15 6 8 1005.2 1004.6 0.0
26/01:30pm 34.0 36.9 23.1 53 7.6 NW 13 20 7 11 1005.8 1005.2 0.0
26/01:00pm 33.7 36.2 23.1 54 7.4 NW 15 20 8 11 1006.0 1005.4 0.0
26/12:30pm 33.4 36.2 23.7 56 6.8 WNW 15 20 8 11 1006.5 1005.9 0.0
26/12:00pm 33.2 36.5 23.8 57 6.6 WNW 13 19 7 10 1007.1 1006.5 0.0
26/11:30am 33.2 36.5 23.8 57 6.6 NW 13 20 7 11 1007.6 1007.0 0.0
26/11:00am 31.9 36.0 24.5 65 5.2 WNW 11 15 6 8 1008.6 1008.0 0.0
26/10:30am 31.8 35.5 23.9 63 5.5 W 11 15 6 8 1009.0 1008.4 0.0
26/10:00am 31.8 35.9 25.2 68 4.7 WSW 13 19 7 10 1009.3 1008.7 0.0
26/09:30am 31.3 35.7 25.6 71 4.1 SW 13 17 7 9 1009.4 1008.8 0.0
26/09:00am 30.5 34.9 25.6 75 3.5 SW 13 19 7 10 1009.4 1008.8 0.0
26/08:30am 29.8 34.8 26.0 80 2.7 WNW 11 15 6 8 1009.0 1008.4 0.0
26/08:00am 28.8 33.5 25.6 83 2.3 WNW 11 13 6 7 1008.8 1008.2 0.0
26/07:30am 28.2 33.5 25.8 87 1.7 NNW 9 11 5 6 1009.0 1008.4 0.0
26/07:00am 27.5 33.3 26.1 92 1.0 NNW 7 11 4 6 1009.1 1008.5 0.0
26/06:30am 26.7 32.6 26.2 97 0.4 N 7 9 4 5 1008.8 1008.2 0.0
26/06:00am 26.4 33.1 25.9 97 0.4 NNE 2 6 1 3 1008.5 1007.9 0.0
26/05:54am 26.4 32.7 25.9 97 0.4 NNE 4 7 2 4 1008.6 1008.0 0.0
26/05:30am 26.4 32.4 26.1 98 0.2 NE 6 9 3 5 1008.7 1008.1 0.0
26/05:06am 26.1 31.8 25.9 99 0.1 NE 7 9 4 5 1008.6 1008.0 0.0
26/05:00am 26.0 31.6 25.8 99 0.1 ENE 7 9 4 5 1008.5 1007.9 0.0
26/04:30am 25.5 30.9 25.2 98 0.2 N 6 7 3 4 1007.8 1007.2 0.0
26/04:00am 25.7 31.1 25.2 97 0.4 NW 6 7 3 4 1007.0 1006.4 0.0
26/03:30am 25.8 31.2 25.1 96 0.5 WNW 6 7 3 4 1006.9 1006.3 0.0
26/03:00am 25.4 31.5 24.4 94 0.7 CALM 0 0 0 0 1007.0 1006.4 0.0
26/02:30am 26.1 31.1 24.5 91 1.1 WSW 6 7 3 4 1006.9 1006.3 0.0
26/02:00am 26.7 31.9 25.1 91 1.1 WSW 7 9 4 5 1006.9 1006.3 0.0
26/01:30am 26.8 32.1 25.0 90 1.3 WSW 6 7 3 4 1007.1 1006.5 0.0
26/01:00am 27.1 32.3 25.1 89 1.4 WSW 7 11 4 6 1007.2 1006.6 0.0
26/12:30am 27.2 32.4 24.8 87 1.7 WNW 6 9 3 5 1007.3 1006.7 0.0
26/12:00am 27.4 32.4 24.8 86 1.8 WNW 7 9 4 5 1007.5 1006.9 0.0
 
Date/Time
WST
Temp
°C
App
Temp
°C
Dew
Point
Rel
Hum
%
Delta-T
°C
Wind Press
QNH
hPa
Press
MSL
hPa
Rain
since 9 am
mm
Dir
 
Spd
km/h
Gust
km/h
Spd
kts
Gust
kts
25/11:30pm 27.8 32.7 24.6 83 2.2 WNW 7 9 4 5 1007.8 1007.2 0.0
25/11:00pm 28.1 32.9 24.5 81 2.5 WNW 7 9 4 5 1008.0 1007.4 0.0
25/10:30pm 28.4 33.1 25.0 82 2.4 WNW 9 11 5 6 1007.9 1007.3 0.0
25/10:00pm 28.0 33.0 24.8 83 2.2 NW 7 9 4 5 1007.8 1007.2 0.0
25/09:30pm 28.3 33.1 24.5 80 2.6 NNW 7 11 4 6 1007.4 1006.8 0.0
25/09:00pm 28.6 32.9 24.2 77 3.1 N 9 11 5 6 1007.1 1006.5 0.0
25/08:30pm 29.0 33.2 24.1 75 3.4 N 9 11 5 6 1007.1 1006.5 0.0
25/08:00pm 29.2 33.3 24.5 76 3.3 NNW 11 13 6 7 1006.5 1005.9 0.0
25/07:30pm 29.6 34.0 25.1 77 3.2 NW 11 17 6 9 1006.3 1005.7 0.0
25/07:00pm 30.8 35.1 24.2 68 4.6 NNW 9 11 5 6 1005.8 1005.2 0.0
25/06:30pm 31.7 35.5 24.0 63 5.4 NNW 11 15 6 8 1005.6 1005.0 0.0
25/06:00pm 32.4 35.7 23.9 61 5.9 NNW 13 19 7 10 1005.0 1004.4 0.0
25/05:30pm 32.9 35.6 23.5 57 6.5 NNW 15 20 8 11 1004.5 1003.9 0.0
25/05:00pm 33.6 35.8 23.3 55 7.2 NNW 17 24 9 13 1004.5 1003.9 0.0
25/04:30pm 34.1 36.8 24.1 56 7.0 NW 17 24 9 13 1004.6 1004.0 0.0
25/04:00pm 36.8 38.5 19.3 36 11.7 WNW 9 15 5 8 1004.8 1004.2 0.0
25/03:30pm 36.7 38.3 18.3 34 12.1 ESE 7 11 4 6 1005.0 1004.4 0.0
25/03:00pm 37.0 38.3 19.4 35 11.8 SSE 11 17 6 9 1005.4 1004.8 0.0
25/02:30pm 36.8 38.1 18.4 34 12.1 SSE 9 17 5 9 1005.6 1005.0 0.0
25/02:00pm 36.4 37.5 18.9 35 11.6 SW 11 19 6 10 1006.0 1005.4 0.0
25/01:30pm 36.6 38.8 19.5 36 11.4 S 7 15 4 8 1006.4 1005.8 0.0
25/01:00pm 35.4 38.4 21.3 44 9.6 SSE 7 13 4 7 1006.7 1006.1 0.0
25/12:30pm 34.8 37.0 20.4 43 9.7 SE 9 17 5 9 1007.1 1006.5 0.0
25/12:00pm 34.6 36.9 22.0 48 8.6 SE 13 20 7 11 1007.5 1006.9 0.0
25/11:30am 33.8 35.8 21.6 49 8.3 E 13 20 7 11 1008.0 1007.4 0.0
25/11:00am 33.0 34.2 21.5 50 7.8 SE 17 24 9 13 1008.6 1008.0 0.0
25/10:30am 33.0 33.8 21.8 51 7.6 SE 20 30 11 16 1009.1 1008.5 0.0
25/10:00am 31.6 32.3 22.3 57 6.4 SE 22 30 12 16 1009.6 1009.0 0.0
25/09:30am 31.0 32.7 22.3 60 5.9 SE 17 28 9 15 1009.8 1009.2 0.0
25/09:00am 29.0 30.6 21.5 64 5.0 SE 15 24 8 13 1009.8 1009.2 0.0
25/08:30am 29.8 32.3 22.5 65 5.0 SSE 13 20 7 11 1009.6 1009.0 0.0
25/08:00am 29.3 33.2 22.5 67 4.6 W 6 9 3 5 1009.1 1008.5 0.0
25/07:30am 26.5 29.8 22.6 79 2.6 N 9 11 5 6 1008.1 1007.5 0.0
25/07:00am 25.1 28.6 22.8 87 1.6 NNW 9 13 5 7 1007.9 1007.3 0.0
25/06:30am 24.4 28.2 22.7 90 1.1 WNW 7 11 4 6 1007.9 1007.3 0.0
25/06:00am 24.1 27.0 22.4 90 1.1 W 11 17 6 9 1007.2 1006.6 0.0
25/05:30am 24.4 27.2 22.3 88 1.4 SW 11 15 6 8 1007.4 1006.8 0.0
25/05:00am 24.5 25.7 22.2 87 1.5 SSW 19 24 10 13 1007.6 1007.0 0.0
25/04:30am 24.4 25.6 22.5 89 1.3 SSW 20 28 11 15 1007.9 1007.3 0.0
25/04:00am 24.7 24.3 22.4 87 1.5 SSW 28 33 15 18 1007.9 1007.3 0.0
25/03:30am 26.4 26.4 23.1 82 2.2 SSW 28 56 15 30 1007.7 1007.1 0.0
25/03:00am 26.4 25.8 22.7 80 2.5 SW 30 39 16 21 1007.2 1006.6 0.0
25/02:55am 26.2 25.9 22.5 80 2.5 SSW 28 39 15 21 1007.3 1006.7 0.0
25/02:30am 25.8 30.1 22.7 83 2.1 WNW 4 7 2 4 1006.2 1005.6 0.0
25/02:00am 25.7 29.6 21.8 79 2.6 ENE 4 7 2 4 1006.4 1005.8 0.0
25/01:30am 25.8 27.8 21.5 77 2.9 N 13 19 7 10 1006.3 1005.7 0.0
25/01:00am 26.3 29.1 21.5 75 3.2 NNW 9 13 5 7 1006.4 1005.8 0.0
25/12:30am 26.9 29.3 21.6 72 3.5 NNW 11 15 6 8 1005.9 1005.3 0.0
25/12:00am 26.9 28.9 22.3 76 3.1 NNW 15 26 8 14 1005.2 1004.6 0.0
 
Date/Time
WST
Temp
°C
App
Temp
°C
Dew
Point
Rel
Hum
%
Delta-T
°C
Wind Press
QNH
hPa
Press
MSL
hPa
Rain
since 9 am
mm
Dir
 
Spd
km/h
Gust
km/h
Spd
kts
Gust
kts
24/11:30pm 27.1 28.1 21.8 73 3.6 N 19 28 10 15 1006.3 1005.7 0.0
24/11:20pm 28.2 29.4 23.8 77 3.0 N 24 39 13 21 1007.1 1006.5 0.0
24/11:00pm 28.8 32.9 27.2 91 1.2 N 20 35 11 19 1007.9 1007.3 0.0
24/10:30pm 29.0 33.6 27.6 92 1.0 N 19 30 10 16 1008.6 1008.0 0.0
24/10:18pm 28.8 33.8 27.6 93 0.9 N 17 26 9 14 1008.1 1007.5 0.0
24/10:00pm 28.9 34.2 27.5 92 1.0 N 15 20 8 11 1007.6 1007.0 0.0
24/09:30pm 28.9 34.9 26.9 89 1.4 N 9 15 5 8 1007.0 1006.4 0.0
24/09:00pm 29.0 34.2 26.8 88 1.6 N 13 19 7 10 1007.1 1006.5 0.0
24/08:30pm 29.3 34.2 25.9 82 2.4 N 11 17 6 9 1006.5 1005.9 0.0
24/08:00pm 29.5 35.1 25.7 80 2.7 NNW 7 11 4 6 1005.8 1005.2 0.0
24/07:30pm 30.4 36.0 25.7 76 3.3 NNW 7 9 4 5 1005.9 1005.3 0.0
24/07:00pm 31.1 36.0 25.2 71 4.2 NNW 9 11 5 6 1005.5 1004.9 0.0
24/06:30pm 32.2 36.9 24.3 63 5.5 NNW 7 11 4 6 1004.8 1004.2 0.0
24/06:00pm 33.3 37.6 24.2 59 6.4 NNW 9 13 5 7 1004.3 1003.7 0.0
24/05:30pm 33.9 38.0 24.5 58 6.6 NNW 11 17 6 9 1004.0 1003.4 0.0
24/05:00pm 34.3 38.4 24.5 56 6.9 N 11 15 6 8 1003.8 1003.2 0.0
24/04:30pm 34.5 38.7 24.7 56 6.9 NNW 11 17 6 9 1003.8 1003.2 0.0
24/04:00pm 35.0 39.7 25.5 58 6.8 NNW 11 19 6 10 1003.8 1003.2 0.0
24/03:30pm 35.2 39.6 25.1 56 7.2 N 11 17 6 9 1004.0 1003.4 0.0
24/03:00pm 35.5 39.5 25.1 55 7.4 N 13 19 7 10 1004.3 1003.7 0.0
24/02:30pm 35.3 39.4 24.6 54 7.6 NNE 11 20 6 11 1004.5 1003.9 0.0
24/02:00pm 34.8 38.8 24.4 54 7.4 N 11 22 6 12 1004.7 1004.1 0.0
24/01:30pm 34.3 38.9 24.8 57 6.7 NNW 9 15 5 8 1005.2 1004.6 0.0
24/01:00pm 34.3 38.0 23.9 54 7.3 N 11 19 6 10 1005.7 1005.1 0.0
24/12:30pm 33.6 37.5 24.2 58 6.6 N 11 22 6 12 1006.1 1005.5 0.0
24/12:00pm 32.9 37.4 24.6 61 5.9 NNW 9 17 5 9 1006.4 1005.8 0.0
24/11:30am 32.4 36.6 24.7 64 5.4 NNW 11 15 6 8 1006.8 1006.2 0.0
24/11:00am 32.4 36.2 24.7 64 5.4 WNW 13 19 7 10 1007.3 1006.7 0.0
24/10:30am 31.7 36.3 24.8 67 4.9 W 9 17 5 9 1007.5 1006.9 0.0
24/10:00am 31.3 36.4 25.6 71 4.1 NW 9 20 5 11 1007.6 1007.0 0.0
24/09:30am 30.2 34.1 24.8 73 3.8 W 13 17 7 9 1007.7 1007.1 0.0
24/09:00am 30.3 34.4 25.8 77 3.2 W 15 20 8 11 1007.8 1007.2 0.0
24/08:30am 29.7 33.1 25.2 77 3.2 W 17 22 9 12 1007.8 1007.2 0.0
24/08:00am 29.8 33.9 25.8 79 2.8 WNW 15 22 8 12 1007.6 1007.0 0.0
24/07:30am 29.3 33.6 26.1 83 2.3 WNW 15 22 8 12 1007.4 1006.8 0.0
24/07:00am 28.6 32.8 26.0 86 1.9 WNW 15 24 8 13 1007.0 1006.4 0.0
24/06:30am 27.8 33.2 26.6 93 0.9 NW 11 15 6 8 1006.9 1006.3 0.0

Other Formats:

Comma delimited format used in spreadsheet applications
http://www.bom.gov.au/fwo/IDW60801/IDW60801.94204.axf

JavaScript Object Notation format (JSON) in row-major order
http://www.bom.gov.au/fwo/IDW60801/IDW60801.94204.json